TimeAKST,TemperatureF,Dew PointF,Humidity,Sea Level PressureIn,VisibilityMPH,Wind Direction,Wind SpeedMPH,Gust SpeedMPH,PrecipitationIn,Events,Conditions,WindDirDegrees,DateUTC
12:16 AM,37.4,32.0,81,28.92,10.0,ENE,6.9,-,N/A,,Overcast,70,2013-02-10 09:16:00
12:36 AM,37.4,32.0,81,28.92,10.0,ENE,6.9,-,N/A,,Overcast,60,2013-02-10 09:36:00
12:56 AM,37.4,32.0,81,28.92,10.0,ENE,5.8,-,N/A,,Overcast,60,2013-02-10 09:56:00
1:16 AM,37.4,32.0,81,28.91,10.0,East,9.2,-,N/A,,Overcast,80,2013-02-10 10:16:00
1:36 AM,37.4,32.0,81,28.91,10.0,East,8.1,-,N/A,,Overcast,90,2013-02-10 10:36:00
1:56 AM,37.4,32.0,81,28.91,10.0,East,10.4,-,N/A,,Overcast,100,2013-02-10 10:56:00
2:16 AM,37.4,32.0,81,28.92,10.0,ESE,10.4,-,N/A,,Overcast,110,2013-02-10 11:16:00
2:36 AM,37.4,32.0,81,28.92,10.0,East,10.4,-,N/A,,Overcast,90,2013-02-10 11:36:00
2:56 AM,37.4,32.0,81,28.92,10.0,East,9.2,-,N/A,,Overcast,90,2013-02-10 11:56:00
3:16 AM,37.4,32.0,81,28.92,10.0,ESE,5.8,-,N/A,,Overcast,110,2013-02-10 12:16:00
3:36 AM,37.4,30.2,75,28.93,10.0,Calm,Calm,-,N/A,,Overcast,0,2013-02-10 12:36:00
3:56 AM,35.6,32.0,87,28.93,10.0,Calm,Calm,-,N/A,,Overcast,0,2013-02-10 12:56:00
4:16 AM,35.6,32.0,87,28.94,10.0,Calm,Calm,-,N/A,,Overcast,0,2013-02-10 13:16:00
4:36 AM,35.6,32.0,87,28.94,10.0,Calm,Calm,-,N/A,,Overcast,0,2013-02-10 13:36:00
4:56 AM,35.6,32.0,87,28.95,10.0,Calm,Calm,-,N/A,,Overcast,0,2013-02-10 13:56:00
5:16 AM,35.6,33.8,93,28.96,10.0,SSE,3.5,-,N/A,,Overcast,160,2013-02-10 14:16:00
5:36 AM,37.4,33.8,87,28.98,10.0,South,5.8,-,0.01,,Overcast,190,2013-02-10 14:36:00
5:56 AM,35.6,33.8,93,28.99,10.0,South,4.6,-,0.02,,Overcast,180,2013-02-10 14:56:00
6:16 AM,35.6,33.8,93,29.00,10.0,SE,6.9,-,N/A,,Overcast,130,2013-02-10 15:16:00
6:36 AM,35.6,33.8,93,29.01,10.0,SSE,8.1,-,0.01,,Overcast,150,2013-02-10 15:36:00
6:56 AM,35.6,32.0,87,29.03,10.0,South,12.7,26.5,0.01,,Overcast,190,2013-02-10 15:56:00
7:16 AM,33.8,30.2,87,29.06,9.0,SSW,12.7,31.1,N/A,,Overcast,200,2013-02-10 16:16:00
7:36 AM,33.8,30.2,87,29.09,7.0,SSW,9.2,20.7,N/A,,Overcast,200,2013-02-10 16:36:00
7:56 AM,33.8,30.2,87,29.11,10.0,South,11.5,23.0,N/A,,Overcast,190,2013-02-10 16:56:00
8:16 AM,33.8,30.2,87,29.14,10.0,South,12.7,18.4,N/A,,Overcast,190,2013-02-10 17:16:00
8:36 AM,33.8,30.2,87,29.15,10.0,South,11.5,20.7,N/A,,Overcast,190,2013-02-10 17:36:00
8:56 AM,35.6,28.4,75,29.17,10.0,South,17.3,26.5,N/A,,Overcast,190,2013-02-10 17:56:00
9:16 AM,35.6,28.4,75,29.18,10.0,SSW,15.0,25.3,N/A,,Mostly Cloudy,200,2013-02-10 18:16:00
9:36 AM,35.6,28.4,75,29.20,10.0,SSW,20.7,25.3,N/A,,Mostly Cloudy,210,2013-02-10 18:36:00
9:56 AM,35.6,28.4,75,29.21,10.0,SSW,17.3,23.0,N/A,,Partly Cloudy,200,2013-02-10 18:56:00
10:16 AM,35.6,28.4,75,29.23,10.0,SSW,15.0,24.2,N/A,,Partly Cloudy,210,2013-02-10 19:16:00
10:36 AM,35.6,28.4,75,29.25,10.0,SSW,10.4,16.1,N/A,,Partly Cloudy,210,2013-02-10 19:36:00
10:56 AM,35.6,28.4,75,29.26,10.0,SSW,11.5,-,N/A,,Mostly Cloudy,200,2013-02-10 19:56:00
11:16 AM,35.6,28.4,75,29.27,10.0,SW,9.2,-,N/A,,Scattered Clouds,220,2013-02-10 20:16:00
11:36 AM,37.4,28.4,70,29.28,10.0,SSW,8.1,-,N/A,,Mostly Cloudy,200,2013-02-10 20:36:00
11:56 AM,37.4,28.4,70,29.29,10.0,SSW,12.7,18.4,N/A,,Overcast,200,2013-02-10 20:56:00
12:16 PM,37.4,28.4,70,29.31,10.0,SSW,11.5,19.6,N/A,,Overcast,200,2013-02-10 21:16:00
12:36 PM,37.4,30.2,75,29.32,10.0,SSW,8.1,-,N/A,,Overcast,200,2013-02-10 21:36:00
12:56 PM,37.4,30.2,75,29.32,10.0,SSW,10.4,-,N/A,,Overcast,210,2013-02-10 21:56:00
1:16 PM,37.4,30.2,75,29.33,10.0,SSW,10.4,-,N/A,,Overcast,200,2013-02-10 22:16:00
1:36 PM,35.6,30.2,81,29.33,10.0,South,9.2,-,N/A,,Overcast,190,2013-02-10 22:36:00
1:56 PM,35.6,28.4,75,29.34,10.0,SSW,4.6,16.1,N/A,,Overcast,210,2013-02-10 22:56:00
2:16 PM,35.6,28.4,75,29.34,10.0,SW,11.5,16.1,N/A,,Overcast,230,2013-02-10 23:16:00
2:36 PM,35.6,26.6,70,29.34,10.0,SSW,8.1,-,N/A,,Overcast,210,2013-02-10 23:36:00
2:56 PM,35.6,26.6,70,29.35,10.0,South,4.6,-,N/A,,Overcast,180,2013-02-10 23:56:00
3:16 PM,35.6,28.4,75,29.35,10.0,SSW,8.1,-,N/A,,Overcast,210,2013-02-11 00:16:00
3:36 PM,35.6,28.4,75,29.35,10.0,South,6.9,-,N/A,,Overcast,180,2013-02-11 00:36:00
3:56 PM,35.6,28.4,75,29.36,10.0,SW,5.8,-,N/A,,Overcast,220,2013-02-11 00:56:00
4:16 PM,33.8,28.4,81,29.37,3.0,SSW,8.1,-,N/A,,Mostly Cloudy,210,2013-02-11 01:16:00
4:36 PM,33.8,28.4,81,29.38,1.8,Calm,Calm,-,N/A,,Overcast,0,2013-02-11 01:36:00
4:56 PM,33.8,30.2,87,29.39,1.2,Calm,Calm,-,N/A,,Overcast,0,2013-02-11 01:56:00
5:16 PM,32.0,30.2,93,29.39,1.0,Calm,Calm,-,N/A,,Overcast,0,2013-02-11 02:16:00
5:36 PM,32.0,30.2,93,29.40,1.0,Calm,Calm,-,0.01,,Overcast,0,2013-02-11 02:36:00
5:56 PM,32.0,30.2,93,29.40,1.0,Calm,Calm,-,0.01,,Overcast,0,2013-02-11 02:56:00
6:16 PM,32.0,30.2,93,29.41,1.2,Calm,Calm,-,0.01,,Overcast,0,2013-02-11 03:16:00
6:36 PM,32.0,28.4,87,29.41,2.0,Calm,Calm,-,0.01,,Overcast,0,2013-02-11 03:36:00
6:56 PM,32.0,28.4,87,29.41,3.0,Calm,Calm,-,0.01,,Overcast,0,2013-02-11 03:56:00
7:16 PM,32.0,28.4,87,29.41,6.0,Calm,Calm,-,N/A,,Overcast,0,2013-02-11 04:16:00
7:36 PM,32.0,28.4,87,29.42,10.0,Calm,Calm,-,N/A,,Overcast,0,2013-02-11 04:36:00
7:56 PM,32.0,28.4,87,29.42,8.0,SE,5.8,-,N/A,,Overcast,130,2013-02-11 04:56:00
8:16 PM,32.0,28.4,87,29.42,9.0,SE,4.6,-,N/A,,Mostly Cloudy,130,2013-02-11 05:16:00
8:36 PM,32.0,28.4,87,29.43,7.0,South,3.5,-,N/A,,Mostly Cloudy,170,2013-02-11 05:36:00
8:56 PM,32.0,28.4,87,29.43,10.0,SSW,4.6,-,N/A,,Mostly Cloudy,200,2013-02-11 05:56:00
9:16 PM,32.0,28.4,87,29.43,10.0,South,6.9,-,N/A,,Mostly Cloudy,180,2013-02-11 06:16:00
9:36 PM,32.0,28.4,87,29.44,10.0,SSW,6.9,-,N/A,,Overcast,200,2013-02-11 06:36:00
9:56 PM,32.0,26.6,80,29.44,10.0,SSW,8.1,-,N/A,,Overcast,210,2013-02-11 06:56:00
10:16 PM,32.0,26.6,80,29.45,10.0,South,9.2,-,N/A,,Overcast,190,2013-02-11 07:16:00
10:36 PM,32.0,26.6,80,29.45,10.0,SSW,9.2,-,N/A,,Overcast,210,2013-02-11 07:36:00
10:56 PM,30.2,26.6,86,29.46,10.0,SSW,9.2,-,N/A,,Overcast,210,2013-02-11 07:56:00
11:16 PM,30.2,26.6,86,29.46,10.0,South,5.8,-,N/A,,Overcast,180,2013-02-11 08:16:00
11:36 PM,30.2,26.6,86,29.47,10.0,South,6.9,-,N/A,,Overcast,180,2013-02-11 08:36:00
11:56 PM,30.2,26.6,86,29.48,10.0,South,4.6,-,N/A,,Overcast,180,2013-02-11 08:56:00